createdAt,value
2022-10-19T00:01:21.981Z,8.20
2022-10-19T00:03:51.949Z,8.20
2022-10-19T00:06:26.183Z,8.20
2022-10-19T00:08:58.707Z,8.30
2022-10-19T00:11:26.259Z,8.30
2022-10-19T00:13:55.137Z,8.30
2022-10-19T00:16:23.346Z,8.30
2022-10-19T00:18:50.271Z,8.40
2022-10-19T00:21:19.693Z,8.40
2022-10-19T00:23:46.920Z,8.30
2022-10-19T00:26:13.908Z,8.20
2022-10-19T00:28:41.352Z,8.30
2022-10-19T00:31:14.795Z,8.20
2022-10-19T00:33:42.862Z,8.20
2022-10-19T00:36:39.383Z,8.20
2022-10-19T00:39:10.666Z,8.10
2022-10-19T00:41:38.465Z,8.10
2022-10-19T00:44:15.919Z,8.00
2022-10-19T00:46:45.679Z,8.00
2022-10-19T00:49:25.737Z,7.90
2022-10-19T00:52:21.286Z,7.80
2022-10-19T00:54:50.633Z,7.80
2022-10-19T00:57:18.023Z,7.80
2022-10-19T00:59:46.327Z,7.70
2022-10-19T01:02:13.814Z,7.70
2022-10-19T01:04:45.813Z,7.60
2022-10-19T01:07:13.644Z,7.60
2022-10-19T01:09:40.745Z,7.60
2022-10-19T01:12:11.511Z,7.60
2022-10-19T01:14:43.923Z,7.70
2022-10-19T01:17:11.459Z,7.70
2022-10-19T01:20:12.064Z,7.60
2022-10-19T01:23:12.119Z,7.60
2022-10-19T01:25:45.046Z,7.60
2022-10-19T01:28:27.442Z,7.60
2022-10-19T01:31:23.959Z,7.70
2022-10-19T01:34:10.922Z,7.80
2022-10-19T01:37:02.726Z,8.00
2022-10-19T01:39:49.899Z,8.10
2022-10-19T01:42:30.704Z,8.10
2022-10-19T01:45:29.566Z,8.10
2022-10-19T01:48:07.090Z,8.20
2022-10-19T01:50:39.449Z,8.20
2022-10-19T01:53:09.071Z,8.30
2022-10-19T01:55:39.315Z,8.40
2022-10-19T01:58:09.709Z,8.40
2022-10-19T02:00:41.262Z,8.40
2022-10-19T02:03:10.169Z,8.50
2022-10-19T02:05:38.225Z,8.50
2022-10-19T02:08:27.964Z,8.50
2022-10-19T02:10:56.148Z,8.60
2022-10-19T02:13:24.825Z,8.50
2022-10-19T02:15:54.883Z,8.50
2022-10-19T02:18:31.005Z,8.50
2022-10-19T02:20:58.565Z,8.50
2022-10-19T02:23:27.801Z,8.50
2022-10-19T02:25:56.078Z,8.50
2022-10-19T02:28:26.967Z,8.50
2022-10-19T02:30:53.939Z,8.50
2022-10-19T02:33:20.989Z,8.50
2022-10-19T02:35:48.315Z,8.50
2022-10-19T02:38:20.054Z,8.50
2022-10-19T02:40:58.010Z,8.50
2022-10-19T02:43:28.290Z,8.60
2022-10-19T02:46:19.586Z,8.50
2022-10-19T02:48:48.746Z,8.50
2022-10-19T02:51:30.207Z,8.50
2022-10-19T02:53:58.995Z,8.50
2022-10-19T02:56:28.429Z,8.50
2022-10-19T02:58:55.480Z,8.60
2022-10-19T03:01:22.593Z,8.50
2022-10-19T03:03:49.473Z,8.60
2022-10-19T03:06:16.479Z,8.60
2022-10-19T03:08:43.602Z,8.60
2022-10-19T03:11:10.914Z,8.60
2022-10-19T03:13:37.850Z,8.60
2022-10-19T03:16:10.155Z,8.60
2022-10-19T03:18:37.226Z,8.60
2022-10-19T03:21:14.459Z,8.60
2022-10-19T03:23:42.005Z,8.60
2022-10-19T03:26:12.491Z,8.60
2022-10-19T03:28:39.807Z,8.60
2022-10-19T03:31:06.863Z,8.60
2022-10-19T03:33:33.995Z,8.70
2022-10-19T03:36:37.395Z,8.60
2022-10-19T03:39:07.668Z,8.70
2022-10-19T03:41:36.487Z,8.60
2022-10-19T03:44:04.278Z,8.60
2022-10-19T03:46:31.228Z,8.40
2022-10-19T03:48:58.179Z,8.40
2022-10-19T03:51:27.494Z,8.40
2022-10-19T03:53:56.322Z,8.30
2022-10-19T03:56:25.143Z,8.20
2022-10-19T03:58:53.791Z,8.20
2022-10-19T04:01:31.177Z,8.20
2022-10-19T04:04:01.295Z,8.20
2022-10-19T04:06:30.890Z,8.20
2022-10-19T04:08:58.656Z,8.30
2022-10-19T04:11:28.185Z,8.30
2022-10-19T04:13:56.545Z,8.30
2022-10-19T04:16:24.996Z,8.30
2022-10-19T04:18:51.959Z,8.40
2022-10-19T04:21:36.452Z,8.40
2022-10-19T04:24:09.994Z,8.30
2022-10-19T04:26:45.315Z,8.30
2022-10-19T04:29:12.315Z,8.20
2022-10-19T04:31:40.471Z,8.20
2022-10-19T04:34:08.314Z,8.10
2022-10-19T04:36:35.398Z,8.00
2022-10-19T04:39:02.815Z,8.00
2022-10-19T04:41:29.750Z,7.90
2022-10-19T04:44:04.397Z,7.80
2022-10-19T04:46:31.340Z,7.80
2022-10-19T04:48:59.270Z,7.80
2022-10-19T04:51:27.133Z,7.70
2022-10-19T04:53:59.344Z,7.70
2022-10-19T04:56:28.275Z,7.70
2022-10-19T04:58:57.573Z,7.70
2022-10-19T05:01:26.143Z,7.70
2022-10-19T05:03:58.543Z,7.70
2022-10-19T05:06:26.069Z,7.70
2022-10-19T05:08:53.301Z,7.70
2022-10-19T05:11:20.946Z,7.70
2022-10-19T05:13:48.449Z,7.70
2022-10-19T05:16:18.379Z,7.80
2022-10-19T05:18:50.097Z,7.90
2022-10-19T05:21:17.654Z,7.90
2022-10-19T05:23:45.143Z,8.00
2022-10-19T05:26:15.662Z,8.00
2022-10-19T05:28:42.735Z,8.00
2022-10-19T05:31:20.558Z,8.00
2022-10-19T05:33:47.684Z,7.90
2022-10-19T05:36:25.586Z,7.90
2022-10-19T05:38:54.160Z,8.10
2022-10-19T05:41:22.342Z,8.20
2022-10-19T05:43:54.049Z,8.20
2022-10-19T05:46:21.156Z,8.20
2022-10-19T05:48:48.240Z,8.20
2022-10-19T05:51:18.571Z,8.20
2022-10-19T05:53:46.212Z,8.30
2022-10-19T05:56:17.741Z,8.20
2022-10-19T05:58:45.525Z,8.20
2022-10-19T06:01:14.281Z,8.20
2022-10-19T06:03:41.664Z,8.10
2022-10-19T06:06:09.332Z,8.20
2022-10-19T06:08:37.379Z,8.20
2022-10-19T06:11:11.975Z,8.20
2022-10-19T06:13:40.446Z,8.20
2022-10-19T06:16:08.962Z,8.30
2022-10-19T06:18:36.398Z,8.20
2022-10-19T06:21:10.239Z,8.00
2022-10-19T06:23:37.631Z,8.00
2022-10-19T06:26:07.667Z,8.00
2022-10-19T06:28:35.862Z,8.10
2022-10-19T06:31:05.930Z,8.00
2022-10-19T06:33:35.564Z,8.10
2022-10-19T06:36:23.199Z,8.10
2022-10-19T06:38:50.797Z,8.10
2022-10-19T06:41:17.836Z,8.10
2022-10-19T06:43:44.986Z,8.10
2022-10-19T06:46:20.550Z,8.00
2022-10-19T06:48:58.840Z,8.00
2022-10-19T06:51:27.870Z,8.10
2022-10-19T06:53:57.184Z,8.20
2022-10-19T06:56:25.914Z,8.20
2022-10-19T06:58:53.504Z,8.20
2022-10-19T07:01:20.941Z,8.20
2022-10-19T07:03:47.947Z,8.20
2022-10-19T07:06:14.872Z,8.20
2022-10-19T07:08:42.928Z,8.20
2022-10-19T07:11:12.447Z,8.20
2022-10-19T07:13:39.397Z,8.20
2022-10-19T07:16:15.941Z,8.20
2022-10-19T07:18:47.329Z,8.20
2022-10-19T07:21:16.047Z,8.30
2022-10-19T07:23:44.695Z,8.20
2022-10-19T07:26:15.236Z,8.20
2022-10-19T07:28:44.234Z,8.20
2022-10-19T07:31:14.157Z,8.30
2022-10-19T07:33:41.306Z,8.30
2022-10-19T07:36:10.961Z,8.30
2022-10-19T07:38:38.183Z,8.30
2022-10-19T07:41:12.860Z,8.30
2022-10-19T07:43:41.248Z,8.30
2022-10-19T07:46:29.584Z,8.30
2022-10-19T07:48:56.691Z,8.20
2022-10-19T07:51:23.962Z,8.20
2022-10-19T07:53:50.944Z,8.30
2022-10-19T07:56:20.827Z,8.30
2022-10-19T07:58:49.282Z,8.40
2022-10-19T08:01:25.117Z,8.50
2022-10-19T08:04:48.983Z,8.50
2022-10-19T08:06:41.274Z,8.70
2022-10-19T08:09:08.437Z,8.60
2022-10-19T08:11:35.888Z,8.60
2022-10-19T08:14:03.322Z,8.70
2022-10-19T08:16:40.445Z,8.70
2022-10-19T08:19:12.584Z,8.80
2022-10-19T08:21:41.635Z,8.80
2022-10-19T08:24:08.889Z,8.90
2022-10-19T08:26:41.147Z,8.90
2022-10-19T08:29:13.687Z,8.90
2022-10-19T08:31:41.961Z,9.00
2022-10-19T08:34:09.249Z,9.00
2022-10-19T08:36:37.250Z,9.00
2022-10-19T08:39:06.525Z,9.00
2022-10-19T08:42:06.863Z,9.10
2022-10-19T08:44:56.740Z,9.10
2022-10-19T08:47:33.422Z,9.10
2022-10-19T08:50:00.612Z,9.10
2022-10-19T08:52:34.684Z,9.10
2022-10-19T08:55:15.241Z,9.10
2022-10-19T08:57:56.869Z,9.00
2022-10-19T09:00:35.947Z,9.00
2022-10-19T09:03:32.088Z,9.10
2022-10-19T09:06:31.761Z,9.30
2022-10-19T09:08:59.373Z,9.20
2022-10-19T09:11:38.816Z,9.20
2022-10-19T09:14:16.436Z,9.20
2022-10-19T09:16:43.429Z,9.30
2022-10-19T09:19:25.881Z,9.30
2022-10-19T09:22:04.431Z,9.30
2022-10-19T09:24:52.572Z,9.30
2022-10-19T09:27:24.707Z,9.30
2022-10-19T09:29:56.430Z,9.40
2022-10-19T09:32:32.490Z,9.40
2022-10-19T09:35:25.980Z,9.40
2022-10-19T09:37:53.449Z,9.40
2022-10-19T09:40:29.437Z,9.40
2022-10-19T09:42:58.318Z,9.40
2022-10-19T09:45:42.932Z,9.40
2022-10-19T09:48:32.245Z,9.40
2022-10-19T09:51:01.747Z,9.40
2022-10-19T09:53:29.998Z,9.50
2022-10-19T09:56:06.298Z,9.70
2022-10-19T09:58:34.759Z,9.80
2022-10-19T10:01:03.432Z,9.80
2022-10-19T10:03:36.651Z,9.90
2022-10-19T10:06:09.087Z,9.90
2022-10-19T10:08:51.147Z,9.90
2022-10-19T10:11:27.854Z,9.80
2022-10-19T10:13:57.525Z,9.70
2022-10-19T10:16:30.462Z,9.50
2022-10-19T10:19:00.853Z,9.50
2022-10-19T10:21:34.723Z,9.30
2022-10-19T10:24:10.701Z,9.20
2022-10-19T10:26:43.008Z,9.00
2022-10-19T10:29:21.924Z,8.90
2022-10-19T10:32:05.841Z,8.90
2022-10-19T10:34:58.350Z,8.80
2022-10-19T10:37:42.686Z,8.90
2022-10-19T10:40:28.070Z,8.90
2022-10-19T10:43:01.568Z,8.90
2022-10-19T10:45:38.312Z,8.90
2022-10-19T10:48:24.403Z,9.00
2022-10-19T10:50:52.171Z,9.00
2022-10-19T10:53:32.951Z,9.10
2022-10-19T10:55:59.930Z,9.20
2022-10-19T10:58:51.229Z,9.30
2022-10-19T11:01:24.119Z,9.30
2022-10-19T11:04:15.447Z,9.40
2022-10-19T11:06:47.625Z,9.50
2022-10-19T11:09:38.261Z,9.50
2022-10-19T11:12:09.158Z,9.70
2022-10-19T11:14:44.729Z,9.70
2022-10-19T11:17:22.353Z,9.80
2022-10-19T11:19:51.428Z,9.80
2022-10-19T11:22:39.669Z,9.80
2022-10-19T11:25:44.096Z,9.80
2022-10-19T11:28:13.784Z,9.60
2022-10-19T11:31:06.601Z,9.50
2022-10-19T11:33:39.393Z,9.40
2022-10-19T11:36:23.287Z,9.40
2022-10-19T11:39:07.461Z,9.50
2022-10-19T11:42:27.116Z,9.40
2022-10-19T11:45:05.809Z,9.40
2022-10-19T11:47:55.645Z,9.40
2022-10-19T11:50:34.657Z,9.40
2022-10-19T11:53:13.989Z,9.50
2022-10-19T11:55:43.869Z,9.50
2022-10-19T11:58:16.605Z,9.60
2022-10-19T12:00:56.661Z,9.70
2022-10-19T12:03:43.042Z,9.60
2022-10-19T12:06:39.780Z,9.60
2022-10-19T12:09:15.488Z,9.60
2022-10-19T12:11:57.653Z,9.70
2022-10-19T12:14:30.353Z,9.90
2022-10-19T12:17:01.651Z,10.00
2022-10-19T12:19:33.112Z,10.20
2022-10-19T12:22:04.242Z,10.30
2022-10-19T12:24:33.740Z,10.30
2022-10-19T12:27:01.338Z,10.30
2022-10-19T12:29:34.212Z,10.30
2022-10-19T12:32:04.840Z,10.30
2022-10-19T12:34:31.993Z,10.30
2022-10-19T12:37:15.348Z,10.20
2022-10-19T12:40:17.043Z,10.20
2022-10-19T12:42:54.003Z,10.20
2022-10-19T12:45:30.489Z,10.10
2022-10-19T12:48:11.197Z,10.10
2022-10-19T12:50:50.443Z,10.10
2022-10-19T12:53:31.760Z,10.10
2022-10-19T12:56:15.359Z,10.10
2022-10-19T12:58:46.706Z,10.20
2022-10-19T13:01:26.098Z,10.20
2022-10-19T13:04:30.255Z,10.10
2022-10-19T13:06:57.060Z,10.00
2022-10-19T13:09:33.077Z,10.00
2022-10-19T13:12:21.658Z,10.00
2022-10-19T13:14:54.774Z,10.00
2022-10-19T13:17:34.362Z,10.00
2022-10-19T13:20:13.760Z,10.00
2022-10-19T13:22:59.454Z,9.90
2022-10-19T13:25:41.773Z,10.00
2022-10-19T13:28:17.670Z,10.00
2022-10-19T13:30:44.560Z,10.00
2022-10-19T13:33:29.661Z,10.00
2022-10-19T13:35:59.850Z,9.90
2022-10-19T13:41:25.728Z,9.90
2022-10-19T13:44:01.588Z,9.80
2022-10-19T13:46:31.495Z,9.70
2022-10-19T13:49:01.385Z,9.60
2022-10-19T13:51:54.334Z,9.60
2022-10-19T13:54:52.441Z,9.50
2022-10-19T13:57:50.012Z,9.50
2022-10-19T14:00:22.518Z,9.40
2022-10-19T14:03:11.807Z,9.40
2022-10-19T14:05:47.526Z,9.40
2022-10-19T14:08:31.182Z,9.50
2022-10-19T14:11:13.355Z,9.40
2022-10-19T14:13:40.392Z,9.40
2022-10-19T14:16:07.799Z,9.40
2022-10-19T14:18:36.548Z,9.40
2022-10-19T14:21:08.945Z,9.30
2022-10-19T14:23:40.442Z,9.40
2022-10-19T14:26:11.620Z,9.40
2022-10-19T14:28:39.814Z,9.50
2022-10-19T14:31:17.478Z,9.50
2022-10-19T14:33:50.600Z,9.40
2022-10-19T14:36:23.377Z,9.40
2022-10-19T14:38:54.829Z,9.50
2022-10-19T14:41:27.626Z,9.50
2022-10-19T14:43:56.503Z,9.50
2022-10-19T14:46:31.961Z,9.50
2022-10-19T14:49:10.787Z,9.40
2022-10-19T14:51:52.419Z,9.40
2022-10-19T14:54:36.715Z,9.40
2022-10-19T14:57:12.333Z,9.40
2022-10-19T14:59:55.491Z,9.40
2022-10-19T15:02:24.713Z,9.40
2022-10-19T15:04:54.779Z,9.40
2022-10-19T15:07:42.062Z,9.30
2022-10-19T15:10:31.225Z,9.40
2022-10-19T15:13:04.627Z,9.40
2022-10-19T15:15:34.496Z,9.40
2022-10-19T15:18:01.473Z,9.40
2022-10-19T15:20:30.328Z,9.40
2022-10-19T15:22:58.609Z,9.50
2022-10-19T15:25:35.492Z,9.50
2022-10-19T15:28:40.762Z,9.40
2022-10-19T15:31:24.086Z,9.50
2022-10-19T15:33:55.407Z,9.40
2022-10-19T15:36:23.325Z,9.30
2022-10-19T15:39:11.505Z,9.20
2022-10-19T15:41:47.359Z,9.10
2022-10-19T15:44:40.853Z,9.00
2022-10-19T15:47:19.147Z,9.00
2022-10-19T15:49:51.532Z,9.10
2022-10-19T15:52:20.997Z,9.10
2022-10-19T15:54:49.016Z,9.00
2022-10-19T15:57:29.491Z,9.10
2022-10-19T15:59:58.533Z,9.10
2022-10-19T16:02:25.696Z,9.10
2022-10-19T16:04:54.448Z,9.10
2022-10-19T16:07:34.370Z,9.20
2022-10-19T16:10:01.638Z,9.20
2022-10-19T16:12:28.562Z,9.20
2022-10-19T16:14:55.793Z,9.10
2022-10-19T16:17:23.206Z,9.10
2022-10-19T16:19:50.498Z,9.10
2022-10-19T16:22:17.690Z,9.10
2022-10-19T16:24:44.623Z,9.10
2022-10-19T16:27:15.243Z,9.10
2022-10-19T16:29:43.603Z,9.10
2022-10-19T16:32:10.630Z,9.00
2022-10-19T16:34:38.113Z,9.10
2022-10-19T16:37:06.962Z,9.10
2022-10-19T16:39:34.822Z,9.10
2022-10-19T16:42:01.742Z,9.00
2022-10-19T16:44:28.724Z,9.00
2022-10-19T16:46:59.545Z,9.10
2022-10-19T16:49:26.689Z,9.10
2022-10-19T16:51:56.459Z,9.10
2022-10-19T16:54:26.797Z,9.10
2022-10-19T16:56:55.628Z,9.10
2022-10-19T16:59:22.831Z,9.10
2022-10-19T17:01:50.121Z,8.90
2022-10-19T17:04:20.659Z,8.90
2022-10-19T17:06:47.823Z,8.90
2022-10-19T17:09:40.382Z,8.90
2022-10-19T17:12:01.674Z,8.90
2022-10-19T17:14:28.608Z,8.90
2022-10-19T17:16:56.008Z,8.90
2022-10-19T17:19:23.766Z,8.90
2022-10-19T17:21:51.205Z,8.90
2022-10-19T17:24:22.130Z,8.90
2022-10-19T17:26:51.342Z,9.00
2022-10-19T17:29:19.088Z,8.90
2022-10-19T17:31:46.732Z,8.90
2022-10-19T17:34:14.041Z,8.90
2022-10-19T17:36:44.555Z,8.80
2022-10-19T17:39:18.221Z,8.80
2022-10-19T17:41:46.978Z,8.80
2022-10-19T17:44:14.550Z,8.80
2022-10-19T17:46:41.522Z,8.80
2022-10-19T17:49:09.023Z,8.80
2022-10-19T17:51:36.378Z,8.80
2022-10-19T17:54:08.898Z,8.80
2022-10-19T17:56:37.587Z,8.80
2022-10-19T17:59:07.527Z,8.80
2022-10-19T18:01:34.952Z,8.80
2022-10-19T18:04:01.941Z,8.80
2022-10-19T18:06:34.533Z,8.90
2022-10-19T18:09:03.174Z,8.90
2022-10-19T18:11:37.258Z,8.80
2022-10-19T18:14:06.485Z,8.90
2022-10-19T18:16:39.795Z,8.90
2022-10-19T18:19:07.650Z,8.90
2022-10-19T18:21:38.681Z,8.90
2022-10-19T18:24:09.057Z,8.80
2022-10-19T18:26:38.912Z,8.80
2022-10-19T18:29:16.560Z,8.90
2022-10-19T18:31:43.881Z,8.90
2022-10-19T18:34:15.292Z,8.90
2022-10-19T18:36:42.576Z,8.90
2022-10-19T18:39:12.875Z,8.90
2022-10-19T18:41:40.670Z,8.80
2022-10-19T18:44:08.180Z,8.90
2022-10-19T18:46:37.084Z,8.90
2022-10-19T18:49:06.821Z,8.90
2022-10-19T18:51:33.939Z,8.90
2022-10-19T18:54:01.121Z,8.80
2022-10-19T18:56:29.647Z,8.80
2022-10-19T18:58:57.206Z,8.80
2022-10-19T19:01:26.902Z,8.70
2022-10-19T19:03:56.436Z,8.70
2022-10-19T19:06:33.159Z,8.70
2022-10-19T19:09:02.416Z,8.60
2022-10-19T19:11:34.401Z,8.60
2022-10-19T19:14:15.739Z,8.60
2022-10-19T19:16:44.069Z,8.60
2022-10-19T19:19:16.737Z,8.50
2022-10-19T19:21:44.926Z,8.50
2022-10-19T19:24:15.100Z,8.50
2022-10-19T19:26:46.815Z,8.40
2022-10-19T19:29:14.017Z,8.40
2022-10-19T19:31:40.916Z,8.40
2022-10-19T19:34:09.453Z,8.40
2022-10-19T19:36:38.182Z,8.30
2022-10-19T19:39:05.702Z,8.20
2022-10-19T19:41:34.263Z,8.20
2022-10-19T19:44:01.257Z,8.10
2022-10-19T19:46:28.252Z,8.10
2022-10-19T19:49:05.280Z,8.10
2022-10-19T19:51:33.825Z,8.10
2022-10-19T19:54:00.781Z,8.10
2022-10-19T19:56:28.869Z,8.10
2022-10-19T19:58:57.306Z,8.00
2022-10-19T20:01:25.054Z,8.00
2022-10-19T20:03:52.317Z,8.00
2022-10-19T20:06:22.265Z,8.00
2022-10-19T20:08:52.269Z,8.10
2022-10-19T20:11:19.321Z,8.10
2022-10-19T20:13:46.291Z,8.10
2022-10-19T20:16:18.527Z,8.00
2022-10-19T20:18:47.413Z,8.10
2022-10-19T20:21:14.885Z,8.00
2022-10-19T20:23:45.710Z,8.10
2022-10-19T20:26:19.798Z,8.00
2022-10-19T20:28:47.020Z,8.00
2022-10-19T20:31:14.143Z,8.00
2022-10-19T20:33:42.776Z,8.00
2022-10-19T20:36:18.967Z,8.00
2022-10-19T20:38:49.008Z,8.00
2022-10-19T20:41:19.557Z,8.10
2022-10-19T20:43:46.519Z,8.10
2022-10-19T20:46:18.613Z,8.10
2022-10-19T20:48:45.901Z,8.00
2022-10-19T20:51:17.911Z,8.10
2022-10-19T20:53:46.874Z,8.10
2022-10-19T20:56:16.692Z,8.10
2022-10-19T20:58:45.211Z,8.10
2022-10-19T21:01:13.657Z,8.00
2022-10-19T21:03:45.394Z,8.10
2022-10-19T21:06:12.304Z,8.00
2022-10-19T21:08:39.289Z,8.10
2022-10-19T21:11:21.439Z,8.10
2022-10-19T21:13:49.135Z,8.20
2022-10-19T21:16:18.122Z,8.10
2022-10-19T21:18:46.957Z,8.20
2022-10-19T21:21:22.602Z,8.20
2022-10-19T21:23:53.664Z,8.20
2022-10-19T21:26:21.199Z,8.20
2022-10-19T21:28:49.448Z,8.20
2022-10-19T21:31:17.718Z,8.20
2022-10-19T21:33:45.121Z,8.20
2022-10-19T21:36:13.571Z,8.20
2022-10-19T21:38:41.848Z,8.20
2022-10-19T21:41:15.347Z,8.20
2022-10-19T21:43:43.120Z,8.20
2022-10-19T21:46:21.537Z,8.20
2022-10-19T21:48:48.902Z,8.20
2022-10-19T21:51:30.611Z,8.20
2022-10-19T21:53:58.145Z,8.20
2022-10-19T21:56:25.096Z,8.20
2022-10-19T21:58:53.646Z,8.30
2022-10-19T22:01:24.163Z,8.20
2022-10-19T22:04:05.033Z,8.30
2022-10-19T22:06:34.776Z,8.30
2022-10-19T22:09:03.407Z,8.30
2022-10-19T22:11:30.739Z,8.30
2022-10-19T22:14:00.327Z,8.30
2022-10-19T22:16:28.667Z,8.30
2022-10-19T22:18:56.026Z,8.30
2022-10-19T22:21:29.044Z,8.40
2022-10-19T22:23:58.239Z,8.30
2022-10-19T22:26:28.082Z,8.30
2022-10-19T22:28:57.076Z,8.30
2022-10-19T22:31:25.166Z,8.30
2022-10-19T22:33:52.079Z,8.30
2022-10-19T22:36:19.129Z,8.30
2022-10-19T22:38:46.110Z,8.30
2022-10-19T22:42:09.654Z,8.30
2022-10-19T22:44:36.577Z,8.30
2022-10-19T22:47:03.466Z,8.40
2022-10-19T22:49:30.454Z,8.40
2022-10-19T22:51:57.386Z,8.50
2022-10-19T22:54:24.372Z,8.50
2022-10-19T22:56:51.322Z,8.50
2022-10-19T22:59:18.217Z,8.60
2022-10-19T23:01:45.277Z,8.50
2022-10-19T23:04:12.189Z,8.50
2022-10-19T23:06:39.139Z,8.50
2022-10-19T23:09:06.193Z,8.60
2022-10-19T23:11:33.157Z,8.60
2022-10-19T23:14:00.089Z,8.60
2022-10-19T23:18:54.953Z,8.60
2022-10-19T23:21:21.893Z,8.60
2022-10-19T23:23:48.829Z,8.60
2022-10-19T23:26:20.743Z,8.60
2022-10-19T23:29:18.638Z,8.60
2022-10-19T23:31:45.601Z,8.60
2022-10-19T23:34:12.708Z,8.50
2022-10-19T23:36:39.606Z,8.60
2022-10-19T23:39:06.545Z,8.70
2022-10-19T23:41:33.595Z,8.60
2022-10-19T23:44:00.459Z,8.70
2022-10-19T23:46:27.383Z,8.60
2022-10-19T23:48:54.294Z,8.60
2022-10-19T23:51:22.225Z,8.60
2022-10-19T23:53:50.882Z,8.70
2022-10-19T23:56:29.101Z,8.70
2022-10-19T23:58:56.763Z,8.60
